createdAt,value
2018-09-08T00:02:27.531Z,101928.72
2018-09-08T00:04:55.199Z,101931.91
2018-09-08T00:07:28.390Z,101931.47
2018-09-08T00:09:56.074Z,101924.05
2018-09-08T00:12:23.745Z,101925.95
2018-09-08T00:14:50.795Z,101923.10
2018-09-08T00:17:24.268Z,101929.26
2018-09-08T00:19:57.393Z,101936.02
2018-09-08T00:22:30.522Z,101930.89
2018-09-08T00:25:03.652Z,101932.71
2018-09-08T00:27:36.816Z,101926.83
2018-09-08T00:30:12.716Z,101929.69
2018-09-08T00:32:40.745Z,101929.00
2018-09-08T00:35:08.413Z,101929.56
2018-09-08T00:37:36.065Z,101929.38
2018-09-08T00:40:03.837Z,101920.19
2018-09-08T00:42:31.488Z,101922.16
2018-09-08T00:44:59.510Z,101917.23
2018-09-08T00:47:27.156Z,101911.91
2018-09-08T00:49:55.105Z,101914.75
2018-09-08T00:52:22.791Z,101908.37
2018-09-08T00:54:50.445Z,101908.11
2018-09-08T00:57:18.123Z,101901.95
2018-09-08T00:59:45.812Z,101905.07
2018-09-08T01:02:13.464Z,101906.13
2018-09-08T01:04:41.277Z,101900.70
2018-09-08T01:07:13.502Z,101902.22
2018-09-08T01:09:41.149Z,101898.80
2018-09-08T01:12:08.818Z,101899.38
2018-09-08T01:14:36.449Z,101899.75
2018-09-08T01:17:04.096Z,101897.28
2018-09-08T01:19:31.836Z,101898.42
2018-09-08T01:21:59.498Z,101893.67
2018-09-08T01:24:27.158Z,101890.06
2018-09-08T01:26:54.846Z,101907.46
2018-09-08T01:29:22.516Z,101903.55
2018-09-08T01:31:50.173Z,101904.42
2018-09-08T01:34:17.834Z,101901.00
2018-09-08T01:36:45.736Z,101904.31
2018-09-08T01:39:13.406Z,101906.44
2018-09-08T01:41:41.110Z,101899.22
2018-09-08T01:44:08.754Z,101899.86
2018-09-08T01:46:36.398Z,101910.61
2018-09-08T01:49:04.068Z,101908.93
2018-09-08T01:51:31.715Z,101912.89
2018-09-08T01:53:59.401Z,101906.44
2018-09-08T01:56:27.058Z,101902.36
2018-09-08T01:58:54.718Z,101903.39
2018-09-08T02:01:22.368Z,101899.30
2018-09-08T02:03:50.016Z,101901.47
2018-09-08T02:06:17.687Z,101899.98
2018-09-08T02:08:45.370Z,101899.02
2018-09-08T02:11:13.025Z,101900.24
2018-09-08T02:13:40.729Z,101896.63
2018-09-08T02:16:08.405Z,101892.02
2018-09-08T02:18:36.075Z,101899.97
2018-09-08T02:21:03.753Z,101889.33
2018-09-08T02:23:31.590Z,101892.38
2018-09-08T02:26:01.034Z,101888.95
2018-09-08T02:28:28.682Z,101853.72
2018-09-08T02:30:56.341Z,101891.70
2018-09-08T02:33:24.011Z,101893.12
2018-09-08T02:35:51.684Z,101890.37
2018-09-08T02:38:19.361Z,101888.98
2018-09-08T02:40:47.085Z,101888.92
2018-09-08T02:43:14.752Z,101889.91
2018-09-08T02:45:42.403Z,101893.33
2018-09-08T02:48:10.046Z,101895.69
2018-09-08T02:50:38.413Z,101893.41
2018-09-08T02:53:05.813Z,101844.03
2018-09-08T02:55:32.944Z,101880.11
2018-09-08T02:57:59.602Z,101879.84
2018-09-08T03:00:26.626Z,101879.08
2018-09-08T03:02:53.209Z,101873.95
2018-09-08T03:05:19.788Z,101872.89
2018-09-08T03:07:46.338Z,101870.98
2018-09-08T03:10:13.245Z,101874.49
2018-09-08T03:12:39.707Z,101867.87
2018-09-08T03:15:06.195Z,101874.73
2018-09-08T03:17:32.681Z,101831.97
2018-09-08T03:19:59.110Z,101876.06
2018-09-08T03:22:25.538Z,101873.00
2018-09-08T03:24:51.973Z,101868.08
2018-09-08T03:27:18.583Z,101865.98
2018-09-08T03:29:45.008Z,101870.92
2018-09-08T03:32:11.626Z,101869.66
2018-09-08T03:34:38.054Z,101863.52
2018-09-08T03:37:04.536Z,101861.89
2018-09-08T03:39:30.985Z,101861.59
2018-09-08T03:41:57.413Z,101866.18
2018-09-08T03:44:23.899Z,101864.15
2018-09-08T03:46:50.329Z,101866.00
2018-09-08T03:49:16.770Z,101863.20
2018-09-08T03:51:43.234Z,101867.56
2018-09-08T03:54:09.693Z,101865.28
2018-09-08T03:56:36.126Z,101863.02
2018-09-08T03:59:02.667Z,101860.27
2018-09-08T04:01:29.147Z,101868.82
2018-09-08T04:03:56.905Z,101871.38
2018-09-08T04:06:24.598Z,101866.55
2018-09-08T04:08:52.270Z,101862.55
2018-09-08T04:11:19.963Z,101858.18
2018-09-08T04:13:47.621Z,101858.39
2018-09-08T04:16:15.261Z,101869.03
2018-09-08T04:18:42.909Z,101871.29
2018-09-08T04:21:10.580Z,101869.85
2018-09-08T04:23:38.243Z,101862.44
2018-09-08T04:26:06.414Z,101864.34
2018-09-08T04:28:34.062Z,101864.25
2018-09-08T04:31:02.691Z,101852.67
2018-09-08T04:33:30.412Z,101857.02
2018-09-08T04:35:58.116Z,101853.90
2018-09-08T04:38:25.799Z,101855.98
2018-09-08T04:40:53.491Z,101864.08
2018-09-08T04:43:21.150Z,101865.10
2018-09-08T04:45:52.315Z,101864.15
2018-09-08T04:48:19.987Z,101871.64
2018-09-08T04:50:47.634Z,101865.59
2018-09-08T04:53:15.332Z,101866.62
2018-09-08T04:55:42.977Z,101863.58
2018-09-08T04:58:10.617Z,101868.14
2018-09-08T05:00:38.482Z,101856.38
2018-09-08T05:03:06.305Z,101869.59
2018-09-08T05:05:33.957Z,101863.70
2018-09-08T05:08:01.678Z,101866.45
2018-09-08T05:10:29.338Z,101862.45
2018-09-08T05:12:57.004Z,101726.80
2018-09-08T05:15:24.654Z,101852.70
2018-09-08T05:17:52.316Z,101841.09
2018-09-08T05:20:19.970Z,101846.02
2018-09-08T05:22:47.638Z,101848.89
2018-09-08T05:25:15.273Z,101848.52
2018-09-08T05:27:42.945Z,101855.16
2018-09-08T05:30:10.609Z,101859.63
2018-09-08T05:32:38.269Z,101863.50
2018-09-08T05:35:06.407Z,101863.70
2018-09-08T05:37:34.023Z,101863.31
2018-09-08T05:40:01.685Z,101862.57
2018-09-08T05:42:29.365Z,101861.78
2018-09-08T05:44:57.011Z,101861.03
2018-09-08T05:47:24.649Z,101862.84
2018-09-08T05:49:52.289Z,101862.18
2018-09-08T05:52:19.978Z,101859.44
2018-09-08T05:54:47.627Z,101863.95
2018-09-08T05:57:15.300Z,101865.05
2018-09-08T05:59:42.995Z,101867.87
2018-09-08T06:02:10.783Z,101859.33
2018-09-08T06:04:38.439Z,101849.16
2018-09-08T06:07:06.233Z,101851.53
2018-09-08T06:09:34.769Z,101857.99
2018-09-08T06:12:02.419Z,101852.88
2018-09-08T06:14:31.218Z,101857.05
2018-09-08T06:16:59.090Z,101859.50
2018-09-08T06:19:26.750Z,101855.70
2018-09-08T06:21:54.441Z,101857.98
2018-09-08T06:24:22.164Z,101852.49
2018-09-08T06:26:49.857Z,101858.91
2018-09-08T06:29:17.983Z,101860.84
2018-09-08T06:31:46.130Z,101869.97
2018-09-08T06:34:13.828Z,101869.32
2018-09-08T06:36:41.540Z,101870.27
2018-09-08T06:39:15.915Z,101859.81
2018-09-08T06:41:43.955Z,101860.26
2018-09-08T06:44:11.657Z,101862.09
2018-09-08T06:46:39.383Z,101867.59
2018-09-08T06:49:07.050Z,101862.42
2018-09-08T06:51:35.641Z,101860.72
2018-09-08T06:54:03.550Z,101856.73
2018-09-08T06:56:31.301Z,101858.55
2018-09-08T06:58:59.326Z,101869.36
2018-09-08T07:01:27.164Z,101864.73
2018-09-08T07:03:54.831Z,101864.25
2018-09-08T07:06:22.496Z,101863.66
2018-09-08T07:08:50.166Z,101851.90
2018-09-08T07:11:17.801Z,101865.56
2018-09-08T07:13:45.526Z,101864.89
2018-09-08T07:16:13.172Z,101873.17
2018-09-08T07:18:40.793Z,101863.28
2018-09-08T07:21:08.500Z,101858.73
2018-09-08T07:23:36.207Z,101858.16
2018-09-08T07:26:04.046Z,101855.30
2018-09-08T07:28:32.465Z,101849.41
2018-09-08T07:31:00.151Z,101861.27
2018-09-08T07:33:28.209Z,101854.34
2018-09-08T07:35:55.921Z,101855.93
2018-09-08T07:38:24.425Z,101854.24
2018-09-08T07:40:52.358Z,101859.28
2018-09-08T07:43:20.068Z,101859.48
2018-09-08T07:45:47.848Z,101854.72
2018-09-08T07:48:15.541Z,101848.75
2018-09-08T07:50:43.257Z,101850.03
2018-09-08T07:53:11.023Z,101851.36
2018-09-08T07:55:38.711Z,101857.58
2018-09-08T07:58:06.386Z,101868.40
2018-09-08T08:00:34.105Z,101850.34
2018-09-08T08:03:01.802Z,101841.69
2018-09-08T08:05:29.470Z,101848.03
2018-09-08T08:07:57.153Z,101852.61
2018-09-08T08:10:24.873Z,101849.66
2018-09-08T08:12:53.434Z,101849.28
2018-09-08T08:15:21.232Z,101845.95
2018-09-08T08:17:48.908Z,101853.28
2018-09-08T08:20:16.591Z,101854.00
2018-09-08T08:22:44.280Z,101863.70
2018-09-08T08:25:11.946Z,101851.95
2018-09-08T08:27:39.655Z,101852.50
2018-09-08T08:30:07.393Z,101857.05
2018-09-08T08:32:35.085Z,101848.48
2018-09-08T08:35:02.813Z,101850.67
2018-09-08T08:37:30.810Z,101849.48
2018-09-08T08:39:58.520Z,101849.69
2018-09-08T08:42:26.217Z,101850.94
2018-09-08T08:44:53.891Z,101853.10
2018-09-08T08:47:21.622Z,101853.10
2018-09-08T08:50:00.368Z,101843.00
2018-09-08T08:52:39.283Z,101845.17
2018-09-08T08:55:05.731Z,101848.13
2018-09-08T08:57:33.412Z,101842.09
2018-09-08T09:00:01.092Z,101845.45
2018-09-08T09:02:28.785Z,101841.05
2018-09-08T09:04:56.472Z,101835.34
2018-09-08T09:07:24.177Z,101836.84
2018-09-08T09:09:51.865Z,101836.73
2018-09-08T09:12:19.553Z,101830.85
2018-09-08T09:14:47.255Z,101833.02
2018-09-08T09:17:14.937Z,101827.86
2018-09-08T09:19:53.749Z,101830.06
2018-09-08T09:22:32.365Z,101831.56
2018-09-08T09:25:05.685Z,101824.57
2018-09-08T09:27:34.720Z,101815.44
2018-09-08T09:30:02.726Z,101811.64
2018-09-08T09:32:30.409Z,101810.68
2018-09-08T09:34:58.116Z,101814.34
2018-09-08T09:37:25.896Z,101808.42
2018-09-08T09:39:54.987Z,101804.22
2018-09-08T09:42:22.705Z,101805.46
2018-09-08T09:44:50.402Z,101805.62
2018-09-08T09:47:18.171Z,101800.91
2018-09-08T09:49:45.894Z,101793.20
2018-09-08T09:52:13.606Z,101800.98
2018-09-08T09:54:41.307Z,101802.47
2018-09-08T09:57:09.012Z,101801.50
2018-09-08T09:59:36.707Z,101797.42
2018-09-08T10:02:13.173Z,101797.30
2018-09-08T10:04:40.958Z,101803.27
2018-09-08T10:07:09.605Z,101804.02
2018-09-08T10:09:38.557Z,101808.67
2018-09-08T10:12:06.402Z,101803.34
2018-09-08T10:14:34.101Z,101807.74
2018-09-08T10:17:01.826Z,101803.27
2018-09-08T10:19:29.522Z,101803.27
2018-09-08T10:21:57.252Z,101806.69
2018-09-08T10:24:24.969Z,101811.43
2018-09-08T10:26:52.682Z,101799.43
2018-09-08T10:29:20.361Z,101801.59
2018-09-08T10:31:48.069Z,101771.75
2018-09-08T10:34:15.762Z,101806.41
2018-09-08T10:36:43.443Z,101805.91
2018-09-08T10:39:11.124Z,101815.05
2018-09-08T10:41:38.800Z,101807.52
2018-09-08T10:44:06.537Z,101813.97
2018-09-08T10:46:34.227Z,101817.01
2018-09-08T10:49:01.931Z,101813.97
2018-09-08T10:51:46.478Z,101817.50
2018-09-08T10:54:14.236Z,101816.41
2018-09-08T10:56:41.934Z,101817.38
2018-09-08T10:59:09.599Z,101823.95
2018-09-08T11:01:37.309Z,101818.61
2018-09-08T11:04:05.334Z,101822.77
2018-09-08T11:06:33.133Z,101816.56
2018-09-08T11:09:00.824Z,101812.34
2018-09-08T11:11:28.550Z,101810.64
2018-09-08T11:13:56.747Z,101807.38
2018-09-08T11:16:24.457Z,101812.49
2018-09-08T11:18:52.245Z,101808.12
2018-09-08T11:21:19.913Z,101809.82
2018-09-08T11:23:47.602Z,101807.43
2018-09-08T11:26:15.313Z,101804.17
2018-09-08T11:28:43.007Z,101808.91
2018-09-08T11:31:10.790Z,101798.52
2018-09-08T11:33:38.498Z,101800.09
2018-09-08T11:36:06.257Z,101800.36
2018-09-08T11:38:34.009Z,101808.02
2018-09-08T11:41:01.748Z,101807.18
2018-09-08T11:43:29.436Z,101807.42
2018-09-08T11:45:57.158Z,101806.40
2018-09-08T11:48:24.842Z,101804.56
2018-09-08T11:50:52.577Z,101799.13
2018-09-08T11:53:20.265Z,101808.62
2018-09-08T11:55:47.948Z,101806.69
2018-09-08T11:58:15.640Z,101800.98
2018-09-08T12:00:43.317Z,101801.62
2018-09-08T12:03:11.023Z,101802.83
2018-09-08T12:05:38.725Z,101802.59
2018-09-08T12:08:06.442Z,101808.67
2018-09-08T12:10:34.212Z,101806.37
2018-09-08T12:13:01.858Z,101811.12
2018-09-08T12:15:29.585Z,101811.39
2018-09-08T12:17:57.278Z,101808.99
2018-09-08T12:20:24.961Z,101809.23
2018-09-08T12:22:52.654Z,101804.62
2018-09-08T12:25:20.340Z,101814.62
2018-09-08T12:27:48.035Z,101819.09
2018-09-08T12:30:15.727Z,101803.94
2018-09-08T12:32:43.398Z,101804.77
2018-09-08T12:35:11.062Z,101802.73
2018-09-08T12:37:38.734Z,101803.84
2018-09-08T12:40:06.449Z,101803.71
2018-09-08T12:42:34.262Z,101792.23
2018-09-08T12:45:02.110Z,101797.81
2018-09-08T12:47:29.802Z,101794.91
2018-09-08T12:49:57.493Z,101800.52
2018-09-08T12:52:25.165Z,101801.62
2018-09-08T12:54:52.859Z,101792.27
2018-09-08T12:57:20.556Z,101784.86
2018-09-08T12:59:48.343Z,101788.63
2018-09-08T13:02:16.046Z,101790.73
2018-09-08T13:04:43.810Z,101787.56
2018-09-08T13:07:11.744Z,101785.52
2018-09-08T13:09:39.462Z,101787.96
2018-09-08T13:12:07.200Z,101782.98
2018-09-08T13:14:34.925Z,101788.55
2018-09-08T13:17:02.650Z,101791.50
2018-09-08T13:19:30.347Z,101798.17
2018-09-08T13:21:58.048Z,101797.58
2018-09-08T13:24:25.803Z,101801.45
2018-09-08T13:26:53.496Z,101796.97
2018-09-08T13:29:21.261Z,101800.02
2018-09-08T13:31:48.970Z,101804.02
2018-09-08T13:34:16.963Z,101800.02
2018-09-08T13:36:44.666Z,101798.67
2018-09-08T13:39:12.325Z,101797.70
2018-09-08T13:41:40.000Z,101793.70
2018-09-08T13:44:07.769Z,101793.20
2018-09-08T13:46:35.578Z,101789.09
2018-09-08T13:49:03.310Z,101785.34
2018-09-08T13:51:31.002Z,101784.73
2018-09-08T13:53:58.670Z,101776.45
2018-09-08T13:56:26.354Z,101772.57
2018-09-08T13:58:54.484Z,101773.30
2018-09-08T14:01:22.185Z,101774.94
2018-09-08T14:03:49.888Z,101771.30
2018-09-08T14:06:17.526Z,101774.03
2018-09-08T14:08:45.197Z,101777.11
2018-09-08T14:11:12.857Z,101777.47
2018-09-08T14:13:40.538Z,101772.27
2018-09-08T14:16:08.228Z,101782.45
2018-09-08T14:18:35.914Z,101782.82
2018-09-08T14:21:03.601Z,101786.67
2018-09-08T14:23:31.272Z,101789.72
2018-09-08T14:25:58.953Z,101786.80
2018-09-08T14:28:26.662Z,101781.48
2018-09-08T14:30:54.297Z,101778.05
2018-09-08T14:33:21.984Z,101781.09
2018-09-08T14:35:49.630Z,101772.08
2018-09-08T14:38:17.808Z,101775.25
2018-09-08T14:40:45.574Z,101758.13
2018-09-08T14:43:13.254Z,101762.00
2018-09-08T14:45:40.926Z,101763.45
2018-09-08T14:48:08.586Z,101767.70
2018-09-08T14:50:36.266Z,101757.88
2018-09-08T14:53:03.958Z,101758.11
2018-09-08T14:55:31.645Z,101757.50
2018-09-08T14:57:59.365Z,101752.30
2018-09-08T15:00:27.051Z,101748.89
2018-09-08T15:02:54.740Z,101750.45
2018-09-08T15:05:22.391Z,101740.27
2018-09-08T15:07:50.748Z,101748.28
2018-09-08T15:10:18.417Z,101751.66
2018-09-08T15:12:46.089Z,101752.27
2018-09-08T15:15:13.739Z,101748.13
2018-09-08T15:17:41.417Z,101745.34
2018-09-08T15:20:09.082Z,101752.64
2018-09-08T15:22:36.744Z,101746.08
2018-09-08T15:25:04.470Z,101757.27
2018-09-08T15:27:32.128Z,101747.66
2018-09-08T15:29:59.791Z,101754.70
2018-09-08T15:32:27.471Z,101756.28
2018-09-08T15:34:55.142Z,101753.50
2018-09-08T15:37:22.806Z,101756.75
2018-09-08T15:39:50.524Z,101752.39
2018-09-08T15:42:18.297Z,101756.38
2018-09-08T15:44:46.035Z,101750.70
2018-09-08T15:47:13.752Z,101756.04
2018-09-08T15:49:41.524Z,101762.48
2018-09-08T15:52:10.909Z,101759.57
2018-09-08T15:54:38.620Z,101760.05
2018-09-08T15:57:06.324Z,101756.41
2018-09-08T15:59:34.020Z,101755.56
2018-09-08T16:02:01.732Z,101755.78
2018-09-08T16:04:29.599Z,101751.55
2018-09-08T16:06:57.238Z,101756.30
2018-09-08T16:09:24.882Z,101757.50
2018-09-08T16:11:52.548Z,101763.11
2018-09-08T16:14:20.236Z,101753.86
2018-09-08T16:16:47.918Z,101757.50
2018-09-08T16:19:15.583Z,101756.30
2018-09-08T16:21:43.260Z,101753.25
2018-09-08T16:24:10.979Z,101753.73
2018-09-08T16:26:38.600Z,101753.02
2018-09-08T16:29:06.291Z,101747.55
2018-09-08T16:31:34.015Z,101751.19
2018-09-08T16:34:01.762Z,101745.95
2018-09-08T16:36:29.426Z,101747.76
2018-09-08T16:38:57.081Z,101740.88
2018-09-08T16:41:24.766Z,101737.44
2018-09-08T16:43:52.418Z,101740.61
2018-09-08T16:46:20.150Z,101739.27
2018-09-08T16:48:47.833Z,101748.75
2018-09-08T16:51:15.526Z,101748.14
2018-09-08T16:53:43.169Z,101748.28
2018-09-08T16:56:11.049Z,101756.64
2018-09-08T16:58:38.777Z,101756.04
2018-09-08T17:01:06.504Z,101756.28
2018-09-08T17:03:34.192Z,101756.63
2018-09-08T17:06:01.930Z,101747.77
2018-09-08T17:08:29.569Z,101751.03
2018-09-08T17:10:57.253Z,101748.26
2018-09-08T17:13:26.327Z,101750.08
2018-09-08T17:15:54.002Z,101751.52
2018-09-08T17:18:21.692Z,101748.84
2018-09-08T17:20:49.358Z,101751.64
2018-09-08T17:23:17.081Z,101754.19
2018-09-08T17:25:44.756Z,101757.72
2018-09-08T17:28:12.544Z,101756.13
2018-09-08T17:30:40.228Z,101764.28
2018-09-08T17:33:07.928Z,101757.48
2018-09-08T17:35:35.672Z,101758.93
2018-09-08T17:38:03.487Z,101755.77
2018-09-08T17:40:31.212Z,101758.56
2018-09-08T17:42:59.175Z,101753.59
2018-09-08T17:45:26.915Z,101762.81
2018-09-08T17:47:54.611Z,101760.37
2018-09-08T17:50:22.594Z,101761.70
2018-09-08T17:52:50.660Z,101765.11
2018-09-08T17:55:18.353Z,101767.42
2018-09-08T17:57:46.078Z,101766.45
2018-09-08T18:00:13.931Z,101742.58
2018-09-08T18:02:42.130Z,101768.75
2018-09-08T18:05:10.323Z,101770.09
2018-09-08T18:07:38.053Z,101767.36
2018-09-08T18:10:06.481Z,101766.39
2018-09-08T18:12:34.144Z,101771.36
2018-09-08T18:15:01.824Z,101767.12
2018-09-08T18:17:29.597Z,101767.36
2018-09-08T18:19:57.192Z,101766.66
2018-09-08T18:22:24.862Z,101770.16
2018-09-08T18:24:52.533Z,101770.03
2018-09-08T18:27:20.196Z,101766.35
2018-09-08T18:29:47.861Z,101778.38
2018-09-08T18:32:15.542Z,101775.00
2018-09-08T18:34:43.191Z,101773.94
2018-09-08T18:37:10.859Z,101775.84
2018-09-08T18:39:38.588Z,101775.97
2018-09-08T18:42:06.273Z,101784.48
2018-09-08T18:44:34.071Z,101778.14
2018-09-08T18:47:01.753Z,101783.34
2018-09-08T18:49:29.418Z,101785.52
2018-09-08T18:51:57.182Z,101786.20
2018-09-08T18:54:24.866Z,101788.41
2018-09-08T18:56:52.561Z,101783.68
2018-09-08T18:59:20.242Z,101782.94
2018-09-08T19:01:47.918Z,101780.31
2018-09-08T19:04:15.855Z,101782.11
2018-09-08T19:06:43.624Z,101786.48
2018-09-08T19:09:11.293Z,101789.48
2018-09-08T19:11:38.988Z,101799.09
2018-09-08T19:14:11.213Z,101797.20
2018-09-08T19:16:38.892Z,101794.36
2018-09-08T19:19:06.681Z,101794.27
2018-09-08T19:21:34.359Z,101786.34
2018-09-08T19:24:07.583Z,101777.46
2018-09-08T19:26:35.279Z,101784.55
2018-09-08T19:29:08.491Z,101787.17
2018-09-08T19:31:36.192Z,101790.35
2018-09-08T19:34:03.870Z,101793.77
2018-09-08T19:36:31.530Z,101782.11
2018-09-08T19:38:59.195Z,101782.80
2018-09-08T19:41:26.894Z,101789.11
2018-09-08T19:43:54.568Z,101782.70
2018-09-08T19:46:27.625Z,101783.13
2018-09-08T19:48:55.312Z,101787.54
2018-09-08T19:51:23.035Z,101787.09
2018-09-08T19:53:56.472Z,101797.08
2018-09-08T19:56:29.610Z,101762.77
2018-09-08T19:58:58.653Z,101785.38
2018-09-08T20:01:26.544Z,101792.06
2018-09-08T20:03:54.978Z,101794.36
2018-09-08T20:06:22.666Z,101796.02
2018-09-08T20:08:50.360Z,101790.22
2018-09-08T20:11:18.107Z,101796.80
2018-09-08T20:13:45.759Z,101796.46
2018-09-08T20:16:13.701Z,101798.16
2018-09-08T20:18:41.441Z,101789.48
2018-09-08T20:21:09.098Z,101789.70
2018-09-08T20:23:36.740Z,101780.77
2018-09-08T20:26:04.482Z,101778.11
2018-09-08T20:28:32.135Z,101780.59
2018-09-08T20:30:59.846Z,101773.09
2018-09-08T20:33:27.668Z,101778.06
2018-09-08T20:35:55.416Z,101781.23
2018-09-08T20:38:23.357Z,101776.13
2018-09-08T20:40:51.002Z,101774.96
2018-09-08T20:43:18.651Z,101770.06
2018-09-08T20:45:46.625Z,101762.41
2018-09-08T20:48:14.262Z,101763.23
2018-09-08T20:50:41.929Z,101750.90
2018-09-08T20:53:09.575Z,101747.36
2018-09-08T20:55:37.262Z,101749.42
2018-09-08T20:58:04.995Z,101753.06
2018-09-08T21:00:32.649Z,101760.11
2018-09-08T21:03:00.308Z,101772.13
2018-09-08T21:05:28.003Z,101770.47
2018-09-08T21:07:55.646Z,101777.60
2018-09-08T21:10:23.314Z,101782.44
2018-09-08T21:12:51.072Z,101780.73
2018-09-08T21:15:18.741Z,101779.44
2018-09-08T21:17:46.418Z,101776.22
2018-09-08T21:20:14.114Z,101774.56
2018-09-08T21:22:41.790Z,101772.49
2018-09-08T21:25:09.762Z,101767.89
2018-09-08T21:27:37.500Z,101772.72
2018-09-08T21:30:05.250Z,101763.19
2018-09-08T21:32:33.189Z,101768.34
2018-09-08T21:35:00.843Z,101768.34
2018-09-08T21:37:28.564Z,101764.48
2018-09-08T21:39:56.224Z,101762.23
2018-09-08T21:42:23.895Z,101776.95
2018-09-08T21:44:51.562Z,101768.86
2018-09-08T21:47:19.222Z,101767.30
2018-09-08T21:49:46.913Z,101764.77
2018-09-08T21:52:14.735Z,101770.11
2018-09-08T21:54:42.423Z,101774.48
2018-09-08T21:57:10.089Z,101743.22
2018-09-08T21:59:38.049Z,101774.56
2018-09-08T22:02:05.723Z,101772.58
2018-09-08T22:04:33.364Z,101767.28
2018-09-08T22:07:01.098Z,101765.13
2018-09-08T22:09:28.749Z,101773.13
2018-09-08T22:11:56.412Z,101765.63
2018-09-08T22:14:24.079Z,101762.73
2018-09-08T22:16:51.757Z,101764.67
2018-09-08T22:19:19.395Z,101763.84
2018-09-08T22:21:47.084Z,101764.63
2018-09-08T22:24:14.734Z,101760.93
2018-09-08T22:26:42.972Z,101762.22
2018-09-08T22:29:10.631Z,101760.48
2018-09-08T22:31:38.355Z,101760.84
2018-09-08T22:34:06.028Z,101757.95
2018-09-08T22:36:33.693Z,101756.89
2018-09-08T22:39:01.354Z,101744.23
2018-09-08T22:41:29.008Z,101752.70
2018-09-08T22:43:56.664Z,101753.20
2018-09-08T22:46:24.318Z,101753.89
2018-09-08T22:48:51.964Z,101752.24
2018-09-08T22:51:19.683Z,101747.63
2018-09-08T22:53:47.293Z,101755.52
2018-09-08T22:56:14.975Z,101753.34
2018-09-08T22:58:42.617Z,101751.14
2018-09-08T23:01:10.641Z,101754.45
2018-09-08T23:03:38.280Z,101753.98
2018-09-08T23:06:05.995Z,101755.05
2018-09-08T23:08:34.084Z,101757.62
2018-09-08T23:11:01.749Z,101746.80
2018-09-08T23:13:29.413Z,101749.88
2018-09-08T23:15:57.172Z,101753.72
2018-09-08T23:18:24.909Z,101752.33
2018-09-08T23:20:52.559Z,101754.86
2018-09-08T23:23:20.306Z,101758.63
2018-09-08T23:25:47.952Z,101755.22
2018-09-08T23:28:15.620Z,101752.65
2018-09-08T23:30:43.284Z,101756.75
2018-09-08T23:33:10.941Z,101759.55
2018-09-08T23:35:38.599Z,101762.86
2018-09-08T23:38:06.289Z,101761.17
2018-09-08T23:40:34.024Z,101755.78
2018-09-08T23:43:01.666Z,101772.58
2018-09-08T23:45:29.316Z,101763.93
2018-09-08T23:47:56.973Z,101753.75
2018-09-08T23:50:24.682Z,101760.94
2018-09-08T23:52:52.323Z,101761.30
2018-09-08T23:55:19.995Z,101760.43
2018-09-08T23:57:47.766Z,101757.52
